الصفحة الرئيسية
METAR-TAF:

METAR-TAF

مطار :

مطار دمشق الدولي

دمشق, سوريا

دائرة عرض: 33-25N, خط طول: 036-31E, ارتفاع: 608 متر

مراقبة الطقس الحالي

تاريخ ووقت الإصدار 6 دقيقة قبل الساعة 12:00UTC
ريح 18 عقدة من الجنوب/الجنوب الغربي
درجة الحرارة 34°درجة مئوية
الرطوبة 15%
ضغط 1012 hPa
الرؤية 10 كم أو أكثر
غيوم متفرقة على ارتفاع 3000 قدم

METAR: OSDI 241200Z 20018KT 9999 SCT030 34/04 Q1012

زمن: 15:06 (12:06 UTC)

توقعات

تاريخ ووقت الإصدار 2ساعات و 6 دقيقة قبل الساعة 10:00UTC
التوقعات صالحة من24 الساعة 12 UTC إلى 25 الساعة 18 UTC
ريح 10 عقدة من الجنوب الغربي
الرؤية 10 كم أو أكثر
غيوم قليلة على ارتفاع 3000 قدم
مؤقت
من 24 الساعة 12 UTC إلى 24 الساعة 18 UTC
ريح 10 عقدة من الغرب تتزايد حتى 20 عقدة
الرؤية: 8000 متر
غيوم قليلة على ارتفاع 3000 قدم
غيوم متفرقة على ارتفاع 10000 قدم

TAF: OSDI 241000Z 2412/2518 22010KT 9999 FEW030 TEMPO 2412/2418 28010G20KT 8000 FEW030 SCT100

أرصاد الطقس والتوقعات من أكثر من 4000 مطار (تقارير الطقس للمطار METAR والتنبؤ بالطقس بالمطارTAF).

المحطات المتاحة هي النقط الصفراء والحمراء على الخريطة.

حرك المؤشر فوق النقطة لمعرفة اسم المحطة.

ثم انقر لمعرفة أرصاد وتوقعات الطقس.

لتغيير الخارطة: اضغط على الأزرار الخضراء مع رمز الصليب الأسود للتكبير. على الزر الأخضر مع شرطة للتصغير، أو على الأسهم الخضراء للخرائط المجاورة.


METAR-TAF: